Time;durP1;ratioP1;P1;durP2;ratioP2;P2;SDS_P1;SDS_P2;PMS_P1;PMS_P2;Temp;Humidity;BMP_temperature;BMP_pressure;BME280_temperature;BME280_humidity;BME280_pressure;Samples;Min_cycle;Max_cycle;Signal;HPM_P1;HPM_P2
2022/04/07 00:00:06;;;;;;;7.25;5.60;;;9.60;99.90;;;;;;6318737;22;20003;-91
2022/04/07 00:02:31;;;;;;;6.88;5.90;;;9.40;99.90;;;;;;6314183;22;20010;-92
2022/04/07 00:04:57;;;;;;;8.38;6.32;;;9.30;99.90;;;;;;6315015;22;20341;-92
2022/04/07 00:07:23;;;;;;;7.05;6.10;;;9.30;99.90;;;;;;6314989;22;19998;-94
2022/04/07 00:09:48;;;;;;;7.00;6.30;;;9.30;99.90;;;;;;6316737;22;20064;-92
2022/04/07 00:12:14;;;;;;;7.45;6.07;;;9.30;99.90;;;;;;6313450;22;20003;-91
2022/04/07 00:14:40;;;;;;;6.93;5.88;;;9.30;99.90;;;;;;6315170;22;20003;-93
2022/04/07 00:17:06;;;;;;;8.38;6.50;;;9.30;99.90;;;;;;6321038;22;20010;-92
2022/04/07 00:19:31;;;;;;;9.75;6.40;;;9.30;99.90;;;;;;6323645;22;20033;-93
2022/04/07 00:21:57;;;;;;;11.50;6.00;;;9.20;99.90;;;;;;6321065;22;20025;-93
2022/04/07 00:24:23;;;;;;;9.48;6.28;;;9.30;99.90;;;;;;6319574;22;20011;-91
2022/04/07 00:26:49;;;;;;;8.77;6.97;;;9.30;99.90;;;;;;6319435;22;20006;-92
2022/04/07 00:29:15;;;;;;;10.70;7.60;;;9.20;99.90;;;;;;6347847;22;19999;-94
2022/04/07 00:31:41;;;;;;;8.50;6.88;;;9.20;99.90;;;;;;6324257;22;20488;-90
2022/04/07 00:34:10;;;;;;;8.15;6.32;;;9.20;99.90;;;;;;6326627;22;20014;-90
2022/04/07 00:36:36;;;;;;;8.52;6.95;;;9.20;99.90;;;;;;6328194;22;20003;-92
2022/04/07 00:39:03;;;;;;;8.82;6.97;;;9.20;99.90;;;;;;6309143;22;19987;-90
2022/04/07 00:41:29;;;;;;;9.27;6.82;;;9.10;99.90;;;;;;6338253;22;20009;-92
2022/04/07 00:43:55;;;;;;;9.15;6.70;;;9.20;99.90;;;;;;6339279;22;20010;-93
2022/04/07 00:46:20;;;;;;;8.40;6.63;;;9.20;99.90;;;;;;6335500;22;20002;-93
2022/04/07 00:48:46;;;;;;;8.32;6.22;;;9.10;99.90;;;;;;6340399;22;20014;-91
2022/04/07 00:51:12;;;;;;;10.00;6.45;;;9.10;99.90;;;;;;6340833;22;19987;-91
2022/04/07 00:53:39;;;;;;;7.72;5.80;;;9.10;99.90;;;;;;6340612;22;20001;-89
2022/04/07 00:56:09;;;;;;;11.40;5.93;;;9.10;99.90;;;;;;6342605;22;19991;-90
2022/04/07 00:58:35;;;;;;;10.10;5.63;;;9.20;99.90;;;;;;6342436;22;19991;-94
2022/04/07 01:01:02;;;;;;;9.15;6.03;;;9.20;99.90;;;;;;6369026;22;19985;-92
2022/04/07 01:03:28;;;;;;;10.93;5.10;;;9.20;99.90;;;;;;6341222;22;19998;-93
2022/04/07 01:05:53;;;;;;;9.57;4.68;;;9.20;99.90;;;;;;6341093;22;20113;-93
2022/04/07 01:08:19;;;;;;;10.70;4.25;;;9.20;99.90;;;;;;6366763;22;20009;-91
2022/04/07 01:10:45;;;;;;;9.90;4.25;;;9.20;99.90;;;;;;6327640;22;20026;-91
2022/04/07 01:13:12;;;;;;;11.10;3.40;;;9.20;99.90;;;;;;6336607;22;20059;-91
2022/04/07 01:15:38;;;;;;;10.80;2.97;;;9.20;99.90;;;;;;6317117;22;20094;-92
2022/04/07 01:18:04;;;;;;;7.88;3.88;;;9.20;99.90;;;;;;6318472;22;20069;-94
2022/04/07 01:20:30;;;;;;;9.15;3.10;;;9.20;99.90;;;;;;6318666;22;20003;-90
2022/04/07 01:22:56;;;;;;;9.82;3.65;;;9.20;99.90;;;;;;6321866;22;19999;-89
2022/04/07 01:25:27;;;;;;;13.68;3.78;;;9.20;99.90;;;;;;6317493;22;20128;-93
2022/04/07 01:27:56;;;;;;;11.95;4.00;;;9.10;99.90;;;;;;6318038;22;20326;-90
2022/04/07 01:30:22;;;;;;;12.05;3.90;;;9.00;99.90;;;;;;6317679;22;20013;-91
2022/04/07 01:32:58;;;;;;;11.43;3.38;;;8.90;99.90;;;;;;6317047;22;20062;-91
2022/04/07 01:35:25;;;;;;;13.10;3.78;;;8.90;99.90;;;;;;6316051;22;20002;-92
2022/04/07 01:37:52;;;;;;;9.00;3.42;;;8.80;99.90;;;;;;6315794;22;20022;-92
2022/04/07 01:40:21;;;;;;;12.88;3.90;;;8.80;99.90;;;;;;6317090;22;20010;-93
2022/04/07 01:42:50;;;;;;;7.18;3.33;;;8.80;99.90;;;;;;6319642;22;20007;-90
2022/04/07 01:45:16;;;;;;;10.02;3.60;;;8.70;99.90;;;;;;6317163;22;20015;-93
2022/04/07 01:47:45;;;;;;;9.18;3.47;;;8.70;99.90;;;;;;6317262;22;20015;-93
2022/04/07 01:50:13;;;;;;;10.57;5.05;;;8.70;99.90;;;;;;6316505;22;20010;-92
2022/04/07 01:52:41;;;;;;;14.43;4.20;;;8.60;99.90;;;;;;6319761;22;20524;-95
2022/04/07 01:55:07;;;;;;;9.90;4.30;;;8.70;99.90;;;;;;6320586;22;20388;-91
2022/04/07 01:57:34;;;;;;;8.70;4.07;;;8.70;99.90;;;;;;6320955;22;20011;-91
2022/04/07 02:00:03;;;;;;;7.35;3.90;;;8.70;99.90;;;;;;6323369;22;20444;-92
2022/04/07 02:02:29;;;;;;;9.35;5.18;;;8.70;99.90;;;;;;6346637;22;20007;-92
2022/04/07 02:04:57;;;;;;;10.15;4.13;;;8.70;99.90;;;;;;6318741;22;20455;-94
2022/04/07 02:07:28;;;;;;;9.90;4.38;;;8.70;99.90;;;;;;6315386;22;20030;-93
2022/04/07 02:09:54;;;;;;;10.60;4.90;;;8.70;99.90;;;;;;6316043;22;20009;-92
2022/04/07 02:12:20;;;;;;;10.60;4.82;;;8.70;99.90;;;;;;6315873;22;20002;-89
2022/04/07 02:14:48;;;;;;;12.00;4.50;;;8.70;99.90;;;;;;6315677;22;20036;-91
2022/04/07 02:17:20;;;;;;;12.63;4.93;;;8.70;99.90;;;;;;6321364;22;20063;-94
2022/04/07 02:19:51;;;;;;;13.27;5.93;;;8.70;99.90;;;;;;6330292;22;20057;-93
2022/04/07 02:22:18;;;;;;;8.27;4.32;;;8.70;99.90;;;;;;6316953;22;19999;-93
2022/04/07 02:24:44;;;;;;;8.80;5.13;;;8.60;99.90;;;;;;6318341;22;20015;-93
2022/04/07 02:27:10;;;;;;;9.85;5.40;;;8.60;99.90;;;;;;6321113;22;20361;-94
2022/04/07 02:29:36;;;;;;;11.57;5.50;;;8.60;99.90;;;;;;6315588;22;20033;-93
2022/04/07 02:32:04;;;;;;;12.48;6.50;;;8.70;99.90;;;;;;6315154;22;20041;-92
2022/04/07 02:34:29;;;;;;;12.93;5.63;;;8.60;99.90;;;;;;6315129;22;20011;-91
2022/04/07 02:36:55;;;;;;;14.98;6.07;;;8.60;99.90;;;;;;6317188;22;20003;-93
2022/04/07 02:39:21;;;;;;;12.68;5.78;;;8.60;99.90;;;;;;6315143;22;20010;-92
2022/04/07 02:41:47;;;;;;;12.50;5.82;;;8.60;99.90;;;;;;6315616;22;20082;-92
2022/04/07 02:44:13;;;;;;;13.40;5.97;;;8.60;99.90;;;;;;6314323;22;20011;-92
2022/04/07 02:46:38;;;;;;;10.35;5.30;;;8.70;99.90;;;;;;6313953;22;20441;-92
2022/04/07 02:49:04;;;;;;;9.73;4.78;;;8.60;99.90;;;;;;6314669;22;20086;-93
2022/04/07 02:51:32;;;;;;;12.25;5.50;;;8.60;99.90;;;;;;6314118;22;20010;-93
2022/04/07 02:53:58;;;;;;;12.63;5.80;;;8.70;99.90;;;;;;6314537;22;20010;-93
2022/04/07 02:56:28;;;;;;;12.35;6.10;;;8.60;99.90;;;;;;6314692;22;20013;-94
2022/04/07 02:58:54;;;;;;;13.25;5.90;;;8.60;99.90;;;;;;6316829;22;20034;-93
2022/04/07 03:01:20;;;;;;;16.60;6.72;;;8.60;99.90;;;;;;6314742;22;20011;-94
2022/04/07 03:03:46;;;;;;;17.42;6.03;;;8.60;99.90;;;;;;6316113;22;20386;-95
2022/04/07 03:06:12;;;;;;;13.50;6.10;;;8.60;99.90;;;;;;6316531;22;20038;-94
2022/04/07 03:08:38;;;;;;;14.63;6.57;;;8.60;99.90;;;;;;6318567;22;20009;-93
2022/04/07 03:11:05;;;;;;;22.80;7.38;;;8.70;99.90;;;;;;6317182;22;20472;-93
2022/04/07 03:13:31;;;;;;;17.40;6.65;;;8.70;99.90;;;;;;6314969;22;20002;-93
2022/04/07 03:15:57;;;;;;;17.45;6.03;;;8.70;99.90;;;;;;6317614;22;20003;-95
2022/04/07 03:18:23;;;;;;;20.00;6.60;;;8.70;99.90;;;;;;6319310;22;20425;-92
2022/04/07 03:20:49;;;;;;;17.95;5.78;;;8.70;99.90;;;;;;6318426;22;19999;-94
2022/04/07 03:23:15;;;;;;;16.58;6.20;;;8.70;99.90;;;;;;6324041;22;19999;-91
2022/04/07 03:25:41;;;;;;;12.43;4.90;;;8.80;99.90;;;;;;6321728;22;20010;-92
2022/04/07 03:28:07;;;;;;;12.32;5.30;;;8.80;99.90;;;;;;6323979;22;20100;-92
2022/04/07 03:30:33;;;;;;;17.67;5.20;;;8.70;99.90;;;;;;6318579;22;20418;-94
2022/04/07 03:32:58;;;;;;;18.75;5.43;;;8.80;99.90;;;;;;6314953;22;20082;-94
2022/04/07 03:35:27;;;;;;;17.60;5.00;;;8.80;99.90;;;;;;6318522;22;20003;-92
2022/04/07 03:37:53;;;;;;;14.15;4.80;;;8.80;99.90;;;;;;6319367;22;20417;-94
2022/04/07 03:40:19;;;;;;;12.75;4.72;;;8.90;99.90;;;;;;6314186;22;20111;-94
2022/04/07 03:42:45;;;;;;;14.30;4.38;;;8.90;99.90;;;;;;6315789;22;20440;-93
2022/04/07 03:45:10;;;;;;;15.95;4.55;;;8.90;99.90;;;;;;6313572;22;20566;-93
2022/04/07 03:47:36;;;;;;;10.07;4.30;;;8.90;99.90;;;;;;6313275;22;20022;-93
2022/04/07 03:50:02;;;;;;;14.43;4.50;;;8.90;99.90;;;;;;6313407;22;20349;-92
2022/04/07 03:52:28;;;;;;;14.48;4.78;;;8.80;99.90;;;;;;6316000;22;19999;-93
2022/04/07 03:54:54;;;;;;;20.08;5.78;;;8.70;99.90;;;;;;6316949;22;20345;-93
2022/04/07 03:57:20;;;;;;;17.45;5.00;;;8.70;99.90;;;;;;6316221;22;20042;-93
2022/04/07 03:59:45;;;;;;;18.10;5.28;;;8.70;99.90;;;;;;6319790;22;20010;-92
2022/04/07 04:02:12;;;;;;;17.75;4.90;;;8.60;99.90;;;;;;6317341;22;20003;-93
2022/04/07 04:04:38;;;;;;;13.68;4.88;;;8.60;99.90;;;;;;6319041;22;20056;-93
2022/04/07 04:07:04;;;;;;;15.98;5.13;;;8.60;99.90;;;;;;6318817;22;19999;-92
2022/04/07 04:09:31;;;;;;;13.10;5.10;;;8.60;99.90;;;;;;6319917;22;20090;-92
2022/04/07 04:11:56;;;;;;;11.55;4.50;;;8.60;99.90;;;;;;6317125;22;20448;-91
2022/04/07 04:14:22;;;;;;;17.02;4.82;;;8.60;99.90;;;;;;6313964;22;20014;-91
2022/04/07 04:16:48;;;;;;;13.98;4.35;;;8.60;99.90;;;;;;6314494;22;20444;-92
2022/04/07 04:19:14;;;;;;;16.63;5.13;;;8.60;99.90;;;;;;6315016;22;20007;-94
2022/04/07 04:21:39;;;;;;;15.10;5.03;;;8.60;99.90;;;;;;6313996;22;20026;-91
2022/04/07 04:24:05;;;;;;;12.63;5.05;;;8.60;99.90;;;;;;6315921;22;20011;-93
2022/04/07 04:26:31;;;;;;;15.75;4.57;;;8.60;99.90;;;;;;6316384;22;20088;-92
2022/04/07 04:28:56;;;;;;;13.77;4.93;;;8.60;99.90;;;;;;6315477;22;20005;-91
2022/04/07 04:31:24;;;;;;;13.35;4.22;;;8.60;99.90;;;;;;6318047;22;20003;-90
2022/04/07 04:33:54;;;;;;;10.88;4.50;;;8.60;99.90;;;;;;6314953;22;20010;-92
2022/04/07 04:36:20;;;;;;;14.70;4.20;;;8.60;99.90;;;;;;6315495;22;20079;-91
2022/04/07 04:38:46;;;;;;;14.88;4.32;;;8.60;99.90;;;;;;6316427;22;20437;-88
2022/04/07 04:41:11;;;;;;;10.20;4.28;;;8.60;99.90;;;;;;6316656;22;20445;-92
2022/04/07 04:43:38;;;;;;;12.55;4.22;;;8.60;99.90;;;;;;6317757;22;20010;-90
2022/04/07 04:46:04;;;;;;;12.32;3.95;;;8.60;99.90;;;;;;6319995;22;20007;-90
2022/04/07 04:48:30;;;;;;;12.15;4.03;;;8.60;99.90;;;;;;6321559;22;20032;-91
2022/04/07 04:50:57;;;;;;;9.73;3.78;;;8.60;99.90;;;;;;6322320;22;20011;-89
2022/04/07 04:53:24;;;;;;;11.38;4.13;;;8.70;99.90;;;;;;6294621;22;20066;-92
2022/04/07 04:55:50;;;;;;;14.15;4.55;;;8.70;99.90;;;;;;6317773;22;20010;-92
2022/04/07 04:58:16;;;;;;;11.45;4.10;;;8.80;99.90;;;;;;6314720;22;20007;-91
2022/04/07 05:00:45;;;;;;;12.13;3.88;;;8.80;99.90;;;;;;6325488;22;20445;-91
2022/04/07 05:03:11;;;;;;;14.00;3.40;;;8.80;99.90;;;;;;6322482;22;20002;-92
2022/04/07 05:05:47;;;;;;;10.20;3.17;;;8.80;99.90;;;;;;6349780;22;20021;-89
2022/04/07 05:08:14;;;;;;;9.93;3.25;;;8.80;99.90;;;;;;6350165;22;20021;-88
2022/04/07 05:10:40;;;;;;;11.27;3.15;;;8.80;99.90;;;;;;6319760;22;20009;-88
2022/04/07 05:13:06;;;;;;;10.98;3.33;;;8.70;99.90;;;;;;6314010;22;19999;-88
2022/04/07 05:15:32;;;;;;;8.32;3.30;;;8.80;99.90;;;;;;6339440;22;20007;-90
2022/04/07 05:17:57;;;;;;;9.80;3.25;;;8.80;99.90;;;;;;6311921;22;20054;-88
2022/04/07 05:20:23;;;;;;;6.70;2.90;;;8.80;99.90;;;;;;6339282;22;20011;-88
2022/04/07 05:22:49;;;;;;;8.65;2.78;;;8.80;99.90;;;;;;6346354;22;20041;-88
2022/04/07 05:25:16;;;;;;;8.15;2.80;;;8.80;99.90;;;;;;6320233;22;20018;-87
2022/04/07 05:27:45;;;;;;;7.22;2.75;;;8.80;99.90;;;;;;6314334;22;20013;-89
2022/04/07 05:30:17;;;;;;;5.80;2.45;;;8.80;99.90;;;;;;6311760;22;20021;-89
2022/04/07 05:32:44;;;;;;;8.95;2.72;;;8.80;99.90;;;;;;6311465;22;20021;-89
2022/04/07 05:35:14;;;;;;;4.32;2.30;;;8.70;99.90;;;;;;6313114;22;19998;-88
2022/04/07 05:37:40;;;;;;;7.25;3.05;;;8.80;99.90;;;;;;6317943;22;20144;-92
2022/04/07 05:40:08;;;;;;;8.35;2.40;;;8.80;99.90;;;;;;6318046;22;20003;-92
2022/04/07 05:42:34;;;;;;;7.15;2.20;;;8.80;99.90;;;;;;6318967;22;20011;-89
2022/04/07 05:45:00;;;;;;;6.03;2.53;;;8.80;99.90;;;;;;6315618;22;20346;-93
2022/04/07 05:47:26;;;;;;;6.80;2.45;;;8.80;99.90;;;;;;6317479;22;20010;-91
2022/04/07 05:49:56;;;;;;;5.95;2.28;;;8.80;99.90;;;;;;6316035;22;20298;-92
2022/04/07 05:52:23;;;;;;;6.50;2.30;;;8.80;99.90;;;;;;6349268;22;20054;-92
2022/04/07 05:54:49;;;;;;;5.38;2.17;;;8.80;99.90;;;;;;6320785;22;20041;-92
2022/04/07 05:57:14;;;;;;;4.93;2.30;;;8.80;99.90;;;;;;6323580;22;20019;-93
2022/04/07 05:59:40;;;;;;;4.97;2.13;;;8.80;99.90;;;;;;6320845;22;20009;-89
2022/04/07 06:02:07;;;;;;;6.05;2.35;;;8.80;99.90;;;;;;6318722;22;20013;-90
2022/04/07 06:04:32;;;;;;;5.95;2.25;;;8.80;99.90;;;;;;6342491;22;20025;-91
2022/04/07 06:06:58;;;;;;;6.10;2.58;;;8.80;99.90;;;;;;6318415;22;20418;-89
2022/04/07 06:09:23;;;;;;;5.95;2.28;;;8.80;99.90;;;;;;6343803;22;20009;-90
2022/04/07 06:11:49;;;;;;;4.88;2.45;;;8.80;99.90;;;;;;6315759;22;20006;-90
2022/04/07 06:14:15;;;;;;;8.07;2.40;;;8.80;99.90;;;;;;6317475;22;20009;-93
2022/04/07 06:16:40;;;;;;;5.82;2.40;;;8.80;99.90;;;;;;6342215;22;19995;-93
2022/04/07 06:19:06;;;;;;;4.35;2.53;;;8.80;99.90;;;;;;6315912;22;20003;-93
2022/04/07 06:21:33;;;;;;;7.82;2.65;;;8.80;99.90;;;;;;6316569;22;20003;-90
2022/04/07 06:23:59;;;;;;;4.28;2.50;;;8.80;99.90;;;;;;6316774;22;20007;-93
2022/04/07 06:26:25;;;;;;;6.13;2.80;;;8.80;99.90;;;;;;6319047;22;20417;-92
2022/04/07 06:28:51;;;;;;;6.82;2.90;;;8.70;99.90;;;;;;6317782;22;20036;-91
2022/04/07 06:31:17;;;;;;;6.80;3.85;;;8.80;99.90;;;;;;6313846;22;20014;-92
2022/04/07 06:33:43;;;;;;;6.07;3.00;;;8.70;99.90;;;;;;6315383;22;19999;-92
2022/04/07 06:36:08;;;;;;;6.07;3.30;;;8.80;99.90;;;;;;6317258;22;19999;-91
2022/04/07 06:38:34;;;;;;;6.57;3.03;;;8.80;99.90;;;;;;6319760;22;20007;-91
2022/04/07 06:41:01;;;;;;;5.65;3.35;;;8.70;99.90;;;;;;6318747;22;20094;-92
2022/04/07 06:43:27;;;;;;;9.25;4.47;;;8.70;99.90;;;;;;6299725;22;20003;-91
2022/04/07 06:45:53;;;;;;;8.07;4.13;;;8.70;99.90;;;;;;6324059;22;20484;-91
2022/04/07 06:48:20;;;;;;;11.43;4.85;;;8.80;99.90;;;;;;6345570;22;20024;-90
2022/04/07 06:50:46;;;;;;;9.75;4.15;;;8.80;99.90;;;;;;6322116;22;20003;-93
2022/04/07 06:53:12;;;;;;;10.65;4.82;;;8.80;99.90;;;;;;6321438;22;20035;-90
2022/04/07 06:55:39;;;;;;;10.63;4.90;;;8.70;99.90;;;;;;6323103;22;20002;-90
2022/04/07 06:58:08;;;;;;;8.38;4.40;;;8.70;99.90;;;;;;6321383;22;20006;-91
2022/04/07 07:00:40;;;;;;;8.82;4.38;;;8.70;99.90;;;;;;6317009;22;20085;-93
2022/04/07 07:03:05;;;;;;;9.32;4.18;;;8.70;99.90;;;;;;6316225;22;20089;-95
2022/04/07 07:05:35;;;;;;;8.38;4.13;;;8.70;99.90;;;;;;6319093;22;20033;-93
2022/04/07 07:08:14;;;;;;;4.72;1.48;;;8.70;99.90;;;;;;6317872;22;19995;-92
2022/04/07 07:10:40;;;;;;;3.25;0.60;;;8.50;99.90;;;;;;6318811;22;20060;-89
2022/04/07 07:13:06;;;;;;;1.98;0.52;;;7.80;99.90;;;;;;6314609;22;20022;-91
2022/04/07 07:15:32;;;;;;;4.45;0.60;;;7.10;99.90;;;;;;6316192;22;20014;-92
2022/04/07 07:17:57;;;;;;;3.03;0.60;;;6.70;99.90;;;;;;6330682;22;20018;-90
2022/04/07 07:20:23;;;;;;;2.45;0.50;;;6.40;99.90;;;;;;6321824;22;20380;-91
2022/04/07 07:22:50;;;;;;;1.35;0.50;;;6.30;99.90;;;;;;6321054;22;20259;-93
2022/04/07 07:25:16;;;;;;;2.38;0.50;;;6.10;99.90;;;;;;6323912;22;20094;-93
2022/04/07 07:27:46;;;;;;;3.63;0.52;;;6.00;99.90;;;;;;6326928;22;20002;-90
2022/04/07 07:30:15;;;;;;;2.22;0.80;;;6.00;99.90;;;;;;6319443;22;20003;-90
2022/04/07 07:32:42;;;;;;;3.38;0.73;;;6.10;99.90;;;;;;6319845;22;19995;-93
2022/04/07 07:35:09;;;;;;;2.75;0.82;;;6.00;99.90;;;;;;6316272;22;20007;-90
2022/04/07 07:37:36;;;;;;;2.13;0.50;;;6.00;99.90;;;;;;6314412;22;20413;-92
2022/04/07 07:40:07;;;;;;;3.13;0.80;;;6.00;99.90;;;;;;6313631;22;20007;-92
2022/04/07 07:42:33;;;;;;;3.90;0.75;;;6.10;99.90;;;;;;6313818;22;20015;-93
2022/04/07 07:44:59;;;;;;;5.82;1.20;;;6.10;99.90;;;;;;6314010;22;20040;-93
2022/04/07 07:47:25;;;;;;;2.53;0.82;;;6.10;99.90;;;;;;6315029;22;20011;-91
2022/04/07 07:49:51;;;;;;;3.05;0.88;;;6.10;99.90;;;;;;6314305;22;20007;-92
2022/04/07 07:52:17;;;;;;;3.13;0.88;;;6.10;99.90;;;;;;6316932;22;20151;-91
2022/04/07 07:54:43;;;;;;;7.13;1.10;;;6.10;99.90;;;;;;6323039;22;20081;-89
2022/04/07 07:57:09;;;;;;;3.13;0.90;;;6.10;99.90;;;;;;6318510;22;20021;-92
2022/04/07 07:59:34;;;;;;;3.85;1.15;;;6.10;99.90;;;;;;6316105;22;20014;-91
2022/04/07 08:02:00;;;;;;;4.65;1.15;;;6.10;99.90;;;;;;6348844;22;20317;-90
2022/04/07 08:04:26;;;;;;;4.15;0.90;;;6.20;99.90;;;;;;6324720;22;20078;-90
2022/04/07 08:06:54;;;;;;;5.72;1.40;;;6.20;99.90;;;;;;6322351;22;20011;-89
2022/04/07 08:09:22;;;;;;;7.40;1.38;;;6.10;99.90;;;;;;6326301;22;20034;-90
2022/04/07 08:11:47;;;;;;;6.13;1.20;;;6.10;99.90;;;;;;6319842;22;20067;-92
2022/04/07 08:14:13;;;;;;;5.60;1.15;;;6.10;99.90;;;;;;6322099;22;20003;-92
2022/04/07 08:16:39;;;;;;;2.67;1.08;;;6.10;99.90;;;;;;6318664;22;20429;-92
2022/04/07 08:19:05;;;;;;;6.60;1.20;;;6.00;99.90;;;;;;6317268;22;20007;-91
2022/04/07 08:21:32;;;;;;;4.88;1.50;;;6.00;99.90;;;;;;6329126;22;20337;-90
2022/04/07 08:23:58;;;;;;;6.28;1.40;;;6.00;99.90;;;;;;6336283;22;20011;-91
2022/04/07 08:26:23;;;;;;;10.48;1.50;;;6.00;99.90;;;;;;6340121;22;20010;-91
2022/04/07 08:28:51;;;;;;;5.95;1.70;;;6.00;99.90;;;;;;6342204;22;20062;-90
2022/04/07 08:31:17;;;;;;;4.38;1.30;;;6.10;99.90;;;;;;6339330;22;20013;-91
2022/04/07 08:33:43;;;;;;;8.70;1.80;;;6.10;99.90;;;;;;6338585;22;19999;-91
2022/04/07 08:36:09;;;;;;;7.45;2.08;;;6.20;99.90;;;;;;6338798;22;20006;-91
2022/04/07 08:38:34;;;;;;;7.82;1.90;;;6.30;99.90;;;;;;6340179;22;19991;-91
2022/04/07 08:41:00;;;;;;;5.53;2.00;;;6.50;99.90;;;;;;6342377;22;19993;-91
2022/04/07 08:43:42;;;;;;;7.90;2.65;;;6.70;99.90;;;;;;6340247;22;19995;-91
2022/04/07 08:46:11;;;;;;;8.90;2.75;;;6.90;99.90;;;;;;6342189;22;20002;-93
2022/04/07 08:48:40;;;;;;;5.13;2.35;;;7.00;99.90;;;;;;6342131;22;20002;-89
2022/04/07 08:51:06;;;;;;;5.63;2.33;;;7.00;99.90;;;;;;6338886;22;20010;-93
2022/04/07 08:53:39;;;;;;;10.07;3.38;;;7.00;99.90;;;;;;6341685;22;19983;-89
2022/04/07 08:56:08;;;;;;;7.73;3.20;;;7.00;99.90;;;;;;6342245;22;19998;-93
2022/04/07 08:58:34;;;;;;;9.20;3.08;;;7.10;99.90;;;;;;6341839;22;20308;-90
